Monday, June 25, 2018, 3:20 PM EDT
Back to Local

KMTP, Montauk Airport

Location: Montauk, NY, United States Lat: 41.067
Local Time: 3:20 PM EDT (19:20 GMT) Lon: -71.917
Time Zone: US/Eastern Elev: 6 ft

Show me the last for .
Show Coded

Time T Td Feel RH Dir Speed Gust Alt SLP Vis Weather Sky Remarks
2018-06-25 14:54 76 53 77 45 340° 8 - 30.01 30.00 0 None
2018-06-25 13:54 75 56 77 51 330° 10 - 29.99 29.99 0 6-hr Min Temp (2pm): 66.9°F
6-hr Max Temp (2pm): 75.0°F
2018-06-25 12:54 73 59 77 61 340° 10 - 29.97 29.97 0 None
2018-06-25 11:54 71 62 76 73 330° 10 - 29.95 29.95 0 None
2018-06-25 10:54 71 62 76 73 310° 12 - 29.94 29.94 0 None
2018-06-25 09:54 68 62 - 81 320° 7 - 29.92 29.92 0 None
2018-06-25 08:54 68 63 - 83 320° 8 - 29.90 29.90 0 None
2018-06-25 07:54 67 63 - 87 320° 6 - 29.89 29.88 0 24-hr Precip Total (8am): 0.22"
6-hr Min Temp (8am): 64.0°F
6-hr Max Temp (8am): 66.9°F
2018-06-25 06:54 65 64 - 96 320° 7 - 29.86 29.86 0 None
2018-06-25 05:54 65 65 - 100 320° 3 - 29.82 29.82 0 None
2018-06-25 04:54 65 65 - 100 290° 8 - 29.80 29.80 0 None
2018-06-25 03:54 64 64 - 100 290° 8 - 29.79 29.79 0 None
2018-06-25 02:54 64 64 - 100 310° 8 - 29.79 29.78 0 None
2018-06-25 01:54 67 67 - 100 320° 7 - 29.77 29.77 0 6-hr Precip Total (2am): 0.22"
6-hr Min Temp (2am): 66.0°F
6-hr Max Temp (2am): 70.0°F
2018-06-25 00:54 68 67 - 96 - Calm - 29.78 29.77 0 24-hr Min Temp (1am): 61.0°F
24-hr Max Temp (1am): 70.0°F
2018-06-24 23:54 68 68 - 100 220° 7 - 29.80 29.80 0 1-hr Precip Total: 0.05"
2018-06-24 22:54 67 67 - 100 - Calm - 29.81 29.80 0 1-hr Precip Total: 0.10"
6-hr Precip Total (11pm): 0.17"
2018-06-24 21:54 67 67 - 100 160° 5 - 29.82 29.82 0 1-hr Precip Total: 0.07"
2018-06-24 20:54 67 67 - 100 - Calm - 29.83 29.83 0 None
2018-06-24 19:54 66 66 - 100 Variable 3 - 29.81 29.80 0 6-hr Min Temp (8pm): 66.0°F
6-hr Max Temp (8pm): 70.0°F
2018-06-24 18:54 66 65 - 96 200° 6 - 29.82 29.82 0 None
2018-06-24 17:54 67 66 - 96 210° 7 - 29.82 29.81 0 None
2018-06-24 16:54 69 68 - 96 Variable 6 - 29.82 29.81 0 None
2018-06-24 15:54 69 67 - 92 Variable 6 - 29.83 29.83 0 None

Support USWX by starting your Amazon purchase here.